sensor_id;sensor_type;location;lat;lon;timestamp;P1;durP1;ratioP1;P2;durP2;ratioP2
44270;SDS011;29963;44.594;11.368;2022-12-18T00:01:20;5.88;;;5.38;;
44270;SDS011;29963;44.594;11.368;2022-12-18T00:03:49;6.90;;;5.63;;
44270;SDS011;29963;44.594;11.368;2022-12-18T00:06:15;8.93;;;5.70;;
44270;SDS011;29963;44.594;11.368;2022-12-18T00:08:42;7.07;;;6.38;;
44270;SDS011;29963;44.594;11.368;2022-12-18T00:11:13;8.02;;;6.40;;
44270;SDS011;29963;44.594;11.368;2022-12-18T00:13:40;7.85;;;7.00;;
44270;SDS011;29963;44.594;11.368;2022-12-18T00:16:07;7.50;;;6.60;;
44270;SDS011;29963;44.594;11.368;2022-12-18T00:18:36;7.30;;;6.18;;
44270;SDS011;29963;44.594;11.368;2022-12-18T00:21:03;6.80;;;6.10;;
44270;SDS011;29963;44.594;11.368;2022-12-18T00:23:32;7.28;;;6.57;;
44270;SDS011;29963;44.594;11.368;2022-12-18T00:26:03;7.32;;;6.63;;
44270;SDS011;29963;44.594;11.368;2022-12-18T00:28:30;5.57;;;5.07;;
44270;SDS011;29963;44.594;11.368;2022-12-18T00:31:03;8.10;;;5.95;;
44270;SDS011;29963;44.594;11.368;2022-12-18T00:33:30;6.53;;;5.90;;
44270;SDS011;29963;44.594;11.368;2022-12-18T00:38:29;8.77;;;7.35;;
44270;SDS011;29963;44.594;11.368;2022-12-18T00:40:54;6.35;;;5.65;;
44270;SDS011;29963;44.594;11.368;2022-12-18T00:43:20;7.10;;;6.40;;
44270;SDS011;29963;44.594;11.368;2022-12-18T00:45:49;8.07;;;6.60;;
44270;SDS011;29963;44.594;11.368;2022-12-18T00:48:14;7.03;;;6.20;;
44270;SDS011;29963;44.594;11.368;2022-12-18T00:50:40;7.47;;;6.80;;
44270;SDS011;29963;44.594;11.368;2022-12-18T00:53:06;8.35;;;7.55;;
44270;SDS011;29963;44.594;11.368;2022-12-18T00:55:35;8.63;;;7.00;;
44270;SDS011;29963;44.594;11.368;2022-12-18T00:58:03;8.45;;;7.15;;
44270;SDS011;29963;44.594;11.368;2022-12-18T01:00:29;8.55;;;7.30;;
44270;SDS011;29963;44.594;11.368;2022-12-18T01:02:55;8.23;;;6.82;;
44270;SDS011;29963;44.594;11.368;2022-12-18T01:05:20;9.25;;;7.03;;
44270;SDS011;29963;44.594;11.368;2022-12-18T01:07:46;7.85;;;6.93;;
44270;SDS011;29963;44.594;11.368;2022-12-18T01:10:12;8.05;;;6.93;;
44270;SDS011;29963;44.594;11.368;2022-12-18T01:12:38;8.52;;;7.72;;
44270;SDS011;29963;44.594;11.368;2022-12-18T01:15:05;7.55;;;6.47;;
44270;SDS011;29963;44.594;11.368;2022-12-18T01:17:31;7.78;;;6.97;;
44270;SDS011;29963;44.594;11.368;2022-12-18T01:19:57;14.18;;;7.38;;
44270;SDS011;29963;44.594;11.368;2022-12-18T01:22:23;7.03;;;6.43;;
44270;SDS011;29963;44.594;11.368;2022-12-18T01:24:49;8.43;;;7.13;;
44270;SDS011;29963;44.594;11.368;2022-12-18T01:27:14;7.90;;;6.68;;
44270;SDS011;29963;44.594;11.368;2022-12-18T01:29:40;8.35;;;7.07;;
44270;SDS011;29963;44.594;11.368;2022-12-18T01:32:07;7.82;;;7.03;;
44270;SDS011;29963;44.594;11.368;2022-12-18T01:34:35;8.68;;;7.57;;
44270;SDS011;29963;44.594;11.368;2022-12-18T01:37:02;8.20;;;7.40;;
44270;SDS011;29963;44.594;11.368;2022-12-18T01:39:28;7.90;;;6.93;;
44270;SDS011;29963;44.594;11.368;2022-12-18T01:41:54;8.27;;;7.38;;
44270;SDS011;29963;44.594;11.368;2022-12-18T01:47:44;8.98;;;7.40;;
44270;SDS011;29963;44.594;11.368;2022-12-18T01:53:10;7.15;;;6.45;;
44270;SDS011;29963;44.594;11.368;2022-12-18T01:55:40;8.00;;;7.13;;
44270;SDS011;29963;44.594;11.368;2022-12-18T01:58:15;8.52;;;7.63;;
44270;SDS011;29963;44.594;11.368;2022-12-18T02:00:43;9.00;;;8.10;;
44270;SDS011;29963;44.594;11.368;2022-12-18T02:03:08;8.45;;;7.65;;
44270;SDS011;29963;44.594;11.368;2022-12-18T02:18:28;8.85;;;7.85;;
44270;SDS011;29963;44.594;11.368;2022-12-18T02:29:12;8.38;;;7.55;;
44270;SDS011;29963;44.594;11.368;2022-12-18T02:31:51;8.32;;;7.53;;
44270;SDS011;29963;44.594;11.368;2022-12-18T02:34:19;7.65;;;6.85;;
44270;SDS011;29963;44.594;11.368;2022-12-18T02:36:48;8.77;;;7.97;;
44270;SDS011;29963;44.594;11.368;2022-12-18T02:39:16;7.40;;;6.70;;
44270;SDS011;29963;44.594;11.368;2022-12-18T02:41:42;7.75;;;7.05;;
44270;SDS011;29963;44.594;11.368;2022-12-18T02:44:10;8.02;;;7.22;;
44270;SDS011;29963;44.594;11.368;2022-12-18T02:46:38;8.00;;;7.20;;
44270;SDS011;29963;44.594;11.368;2022-12-18T02:49:10;8.63;;;7.13;;
44270;SDS011;29963;44.594;11.368;2022-12-18T02:51:48;8.82;;;7.93;;
44270;SDS011;29963;44.594;11.368;2022-12-18T02:56:56;8.10;;;6.65;;
44270;SDS011;29963;44.594;11.368;2022-12-18T02:59:34;8.07;;;7.28;;
44270;SDS011;29963;44.594;11.368;2022-12-18T03:02:19;8.77;;;7.88;;
44270;SDS011;29963;44.594;11.368;2022-12-18T03:05:00;7.93;;;6.97;;
44270;SDS011;29963;44.594;11.368;2022-12-18T03:07:38;7.90;;;6.90;;
44270;SDS011;29963;44.594;11.368;2022-12-18T03:10:16;8.50;;;6.97;;
44270;SDS011;29963;44.594;11.368;2022-12-18T03:12:51;7.25;;;6.38;;
44270;SDS011;29963;44.594;11.368;2022-12-18T03:15:25;8.10;;;7.25;;
44270;SDS011;29963;44.594;11.368;2022-12-18T03:17:56;8.10;;;7.28;;
44270;SDS011;29963;44.594;11.368;2022-12-18T03:20:29;8.63;;;7.60;;
44270;SDS011;29963;44.594;11.368;2022-12-18T03:22:59;8.43;;;7.35;;
44270;SDS011;29963;44.594;11.368;2022-12-18T03:25:43;8.45;;;7.65;;
44270;SDS011;29963;44.594;11.368;2022-12-18T03:28:12;9.18;;;8.27;;
44270;SDS011;29963;44.594;11.368;2022-12-18T03:30:41;10.45;;;7.30;;
44270;SDS011;29963;44.594;11.368;2022-12-18T03:33:12;9.00;;;7.75;;
44270;SDS011;29963;44.594;11.368;2022-12-18T03:35:44;8.88;;;8.02;;
44270;SDS011;29963;44.594;11.368;2022-12-18T03:38:10;8.60;;;7.80;;
44270;SDS011;29963;44.594;11.368;2022-12-18T03:48:59;7.15;;;6.45;;
44270;SDS011;29963;44.594;11.368;2022-12-18T03:51:48;8.30;;;7.40;;
44270;SDS011;29963;44.594;11.368;2022-12-18T03:54:17;9.65;;;8.15;;
44270;SDS011;29963;44.594;11.368;2022-12-18T03:56:49;9.35;;;8.15;;
44270;SDS011;29963;44.594;11.368;2022-12-18T03:59:26;8.63;;;7.80;;
44270;SDS011;29963;44.594;11.368;2022-12-18T04:01:53;8.52;;;7.38;;
44270;SDS011;29963;44.594;11.368;2022-12-18T04:04:22;9.82;;;7.78;;
44270;SDS011;29963;44.594;11.368;2022-12-18T04:06:50;8.35;;;7.03;;
44270;SDS011;29963;44.594;11.368;2022-12-18T04:09:17;11.57;;;7.93;;
44270;SDS011;29963;44.594;11.368;2022-12-18T04:11:44;9.20;;;7.97;;
44270;SDS011;29963;44.594;11.368;2022-12-18T04:14:11;8.43;;;7.50;;
44270;SDS011;29963;44.594;11.368;2022-12-18T04:16:37;8.18;;;7.30;;
44270;SDS011;29963;44.594;11.368;2022-12-18T04:19:03;8.30;;;7.43;;
44270;SDS011;29963;44.594;11.368;2022-12-18T04:21:29;8.00;;;7.18;;
44270;SDS011;29963;44.594;11.368;2022-12-18T04:23:54;7.72;;;6.95;;
44270;SDS011;29963;44.594;11.368;2022-12-18T04:26:20;8.90;;;8.00;;
44270;SDS011;29963;44.594;11.368;2022-12-18T04:28:46;8.65;;;7.75;;
44270;SDS011;29963;44.594;11.368;2022-12-18T04:31:12;8.45;;;7.63;;
44270;SDS011;29963;44.594;11.368;2022-12-18T04:33:38;8.18;;;7.35;;
44270;SDS011;29963;44.594;11.368;2022-12-18T04:36:03;8.75;;;7.90;;
44270;SDS011;29963;44.594;11.368;2022-12-18T04:38:29;9.38;;;8.38;;
44270;SDS011;29963;44.594;11.368;2022-12-18T04:40:55;10.90;;;8.32;;
44270;SDS011;29963;44.594;11.368;2022-12-18T04:43:21;9.20;;;8.30;;
44270;SDS011;29963;44.594;11.368;2022-12-18T04:45:46;9.38;;;8.07;;
44270;SDS011;29963;44.594;11.368;2022-12-18T04:48:12;9.30;;;8.35;;
44270;SDS011;29963;44.594;11.368;2022-12-18T04:50:38;8.82;;;7.93;;
44270;SDS011;29963;44.594;11.368;2022-12-18T04:53:04;8.40;;;7.60;;
44270;SDS011;29963;44.594;11.368;2022-12-18T04:55:29;9.55;;;7.93;;
44270;SDS011;29963;44.594;11.368;2022-12-18T04:57:55;10.90;;;9.60;;
44270;SDS011;29963;44.594;11.368;2022-12-18T05:00:21;8.82;;;7.93;;
44270;SDS011;29963;44.594;11.368;2022-12-18T05:02:47;7.22;;;6.53;;
44270;SDS011;29963;44.594;11.368;2022-12-18T05:05:13;11.18;;;9.00;;
44270;SDS011;29963;44.594;11.368;2022-12-18T05:07:38;8.55;;;7.65;;
44270;SDS011;29963;44.594;11.368;2022-12-18T05:10:04;8.93;;;7.72;;
44270;SDS011;29963;44.594;11.368;2022-12-18T05:12:31;8.10;;;7.28;;
44270;SDS011;29963;44.594;11.368;2022-12-18T05:14:56;8.90;;;7.93;;
44270;SDS011;29963;44.594;11.368;2022-12-18T05:17:22;9.00;;;7.82;;
44270;SDS011;29963;44.594;11.368;2022-12-18T05:19:48;8.73;;;7.82;;
44270;SDS011;29963;44.594;11.368;2022-12-18T05:22:14;9.80;;;8.38;;
44270;SDS011;29963;44.594;11.368;2022-12-18T05:24:40;9.63;;;8.18;;
44270;SDS011;29963;44.594;11.368;2022-12-18T05:27:09;7.95;;;7.15;;
44270;SDS011;29963;44.594;11.368;2022-12-18T05:29:34;8.77;;;7.88;;
44270;SDS011;29963;44.594;11.368;2022-12-18T05:32:00;14.68;;;8.70;;
44270;SDS011;29963;44.594;11.368;2022-12-18T05:34:26;7.88;;;6.82;;
44270;SDS011;29963;44.594;11.368;2022-12-18T05:36:51;8.23;;;7.38;;
44270;SDS011;29963;44.594;11.368;2022-12-18T05:39:17;9.98;;;8.23;;
44270;SDS011;29963;44.594;11.368;2022-12-18T05:41:42;8.35;;;7.55;;
44270;SDS011;29963;44.594;11.368;2022-12-18T05:44:08;9.55;;;8.57;;
44270;SDS011;29963;44.594;11.368;2022-12-18T05:46:34;9.20;;;8.27;;
44270;SDS011;29963;44.594;11.368;2022-12-18T05:49:00;9.60;;;8.60;;
44270;SDS011;29963;44.594;11.368;2022-12-18T05:51:26;10.88;;;8.80;;
44270;SDS011;29963;44.594;11.368;2022-12-18T05:53:52;9.35;;;8.45;;
44270;SDS011;29963;44.594;11.368;2022-12-18T05:56:19;10.23;;;8.20;;
44270;SDS011;29963;44.594;11.368;2022-12-18T05:58:46;9.85;;;8.80;;
44270;SDS011;29963;44.594;11.368;2022-12-18T06:01:13;10.77;;;7.85;;
44270;SDS011;29963;44.594;11.368;2022-12-18T06:03:41;10.02;;;8.98;;
44270;SDS011;29963;44.594;11.368;2022-12-18T06:06:20;9.23;;;8.32;;
44270;SDS011;29963;44.594;11.368;2022-12-18T06:08:48;10.90;;;8.65;;
44270;SDS011;29963;44.594;11.368;2022-12-18T06:11:16;9.10;;;8.02;;
44270;SDS011;29963;44.594;11.368;2022-12-18T06:13:43;9.90;;;8.90;;
44270;SDS011;29963;44.594;11.368;2022-12-18T06:16:09;10.73;;;9.57;;
44270;SDS011;29963;44.594;11.368;2022-12-18T06:18:35;9.23;;;8.32;;
44270;SDS011;29963;44.594;11.368;2022-12-18T06:21:04;9.82;;;8.18;;
44270;SDS011;29963;44.594;11.368;2022-12-18T06:23:29;7.85;;;7.10;;
44270;SDS011;29963;44.594;11.368;2022-12-18T06:25:55;10.57;;;9.57;;
44270;SDS011;29963;44.594;11.368;2022-12-18T06:28:21;12.38;;;8.63;;
44270;SDS011;29963;44.594;11.368;2022-12-18T06:30:49;11.43;;;8.65;;
44270;SDS011;29963;44.594;11.368;2022-12-18T06:33:15;9.98;;;8.95;;
44270;SDS011;29963;44.594;11.368;2022-12-18T06:35:41;9.57;;;8.40;;
44270;SDS011;29963;44.594;11.368;2022-12-18T06:38:07;9.15;;;8.20;;
44270;SDS011;29963;44.594;11.368;2022-12-18T06:40:33;9.45;;;8.63;;
44270;SDS011;29963;44.594;11.368;2022-12-18T06:42:58;11.75;;;9.45;;
44270;SDS011;29963;44.594;11.368;2022-12-18T06:45:24;9.75;;;8.75;;
44270;SDS011;29963;44.594;11.368;2022-12-18T06:47:50;9.60;;;8.68;;
44270;SDS011;29963;44.594;11.368;2022-12-18T06:50:16;10.15;;;9.10;;
44270;SDS011;29963;44.594;11.368;2022-12-18T06:52:42;9.30;;;8.35;;
44270;SDS011;29963;44.594;11.368;2022-12-18T06:55:09;10.57;;;9.50;;
44270;SDS011;29963;44.594;11.368;2022-12-18T06:57:35;9.90;;;8.20;;
44270;SDS011;29963;44.594;11.368;2022-12-18T07:00:02;10.73;;;9.63;;
44270;SDS011;29963;44.594;11.368;2022-12-18T07:02:30;8.85;;;8.05;;
44270;SDS011;29963;44.594;11.368;2022-12-18T07:04:56;9.25;;;8.35;;
44270;SDS011;29963;44.594;11.368;2022-12-18T07:07:21;10.52;;;9.63;;
44270;SDS011;29963;44.594;11.368;2022-12-18T07:09:48;9.00;;;8.10;;
44270;SDS011;29963;44.594;11.368;2022-12-18T07:12:15;9.25;;;8.27;;
44270;SDS011;29963;44.594;11.368;2022-12-18T07:14:41;10.02;;;9.00;;
44270;SDS011;29963;44.594;11.368;2022-12-18T07:17:06;10.63;;;9.68;;
44270;SDS011;29963;44.594;11.368;2022-12-18T07:19:32;10.25;;;9.00;;
44270;SDS011;29963;44.594;11.368;2022-12-18T07:21:58;10.32;;;9.18;;
44270;SDS011;29963;44.594;11.368;2022-12-18T07:24:24;9.38;;;8.05;;
44270;SDS011;29963;44.594;11.368;2022-12-18T07:26:50;11.65;;;10.20;;
44270;SDS011;29963;44.594;11.368;2022-12-18T07:29:16;12.73;;;9.82;;
44270;SDS011;29963;44.594;11.368;2022-12-18T07:31:41;11.05;;;9.93;;
44270;SDS011;29963;44.594;11.368;2022-12-18T07:34:13;9.93;;;8.93;;
44270;SDS011;29963;44.594;11.368;2022-12-18T07:36:40;11.30;;;10.05;;
44270;SDS011;29963;44.594;11.368;2022-12-18T07:39:06;10.02;;;9.02;;
44270;SDS011;29963;44.594;11.368;2022-12-18T07:41:31;10.40;;;9.30;;
44270;SDS011;29963;44.594;11.368;2022-12-18T07:43:57;10.40;;;9.35;;
44270;SDS011;29963;44.594;11.368;2022-12-18T07:46:23;9.95;;;8.88;;
44270;SDS011;29963;44.594;11.368;2022-12-18T07:48:48;10.38;;;9.27;;
44270;SDS011;29963;44.594;11.368;2022-12-18T07:51:14;9.90;;;8.90;;
44270;SDS011;29963;44.594;11.368;2022-12-18T07:53:40;10.75;;;9.68;;
44270;SDS011;29963;44.594;11.368;2022-12-18T07:56:07;10.00;;;9.05;;
44270;SDS011;29963;44.594;11.368;2022-12-18T07:58:35;11.15;;;10.07;;
44270;SDS011;29963;44.594;11.368;2022-12-18T08:03:37;9.93;;;8.93;;
44270;SDS011;29963;44.594;11.368;2022-12-18T08:06:05;11.35;;;9.07;;
44270;SDS011;29963;44.594;11.368;2022-12-18T08:08:32;9.98;;;8.98;;
44270;SDS011;29963;44.594;11.368;2022-12-18T08:10:58;10.85;;;8.68;;
44270;SDS011;29963;44.594;11.368;2022-12-18T08:13:24;10.02;;;9.05;;
44270;SDS011;29963;44.594;11.368;2022-12-18T08:15:57;9.52;;;8.45;;
44270;SDS011;29963;44.594;11.368;2022-12-18T08:18:27;9.75;;;8.63;;
44270;SDS011;29963;44.594;11.368;2022-12-18T08:20:54;8.90;;;8.00;;
44270;SDS011;29963;44.594;11.368;2022-12-18T08:23:20;9.55;;;8.55;;
44270;SDS011;29963;44.594;11.368;2022-12-18T08:25:48;10.85;;;9.00;;
44270;SDS011;29963;44.594;11.368;2022-12-18T08:28:15;9.45;;;8.13;;
44270;SDS011;29963;44.594;11.368;2022-12-18T08:30:42;10.32;;;8.50;;
44270;SDS011;29963;44.594;11.368;2022-12-18T08:33:07;11.05;;;8.77;;
44270;SDS011;29963;44.594;11.368;2022-12-18T08:35:36;10.68;;;8.50;;
44270;SDS011;29963;44.594;11.368;2022-12-18T08:38:02;9.63;;;8.27;;
44270;SDS011;29963;44.594;11.368;2022-12-18T08:40:28;9.65;;;8.13;;
44270;SDS011;29963;44.594;11.368;2022-12-18T08:42:54;9.32;;;7.80;;
44270;SDS011;29963;44.594;11.368;2022-12-18T08:45:38;11.73;;;9.18;;
44270;SDS011;29963;44.594;11.368;2022-12-18T08:48:04;11.65;;;7.95;;
44270;SDS011;29963;44.594;11.368;2022-12-18T08:50:30;8.80;;;7.50;;
44270;SDS011;29963;44.594;11.368;2022-12-18T08:52:56;10.60;;;8.43;;
44270;SDS011;29963;44.594;11.368;2022-12-18T08:55:21;9.65;;;8.07;;
44270;SDS011;29963;44.594;11.368;2022-12-18T08:57:50;9.52;;;8.35;;
44270;SDS011;29963;44.594;11.368;2022-12-18T09:00:15;10.35;;;8.35;;
44270;SDS011;29963;44.594;11.368;2022-12-18T09:02:41;9.10;;;8.15;;
44270;SDS011;29963;44.594;11.368;2022-12-18T09:05:07;10.07;;;7.80;;
44270;SDS011;29963;44.594;11.368;2022-12-18T09:07:33;10.38;;;8.38;;
44270;SDS011;29963;44.594;11.368;2022-12-18T09:09:58;8.93;;;7.43;;
44270;SDS011;29963;44.594;11.368;2022-12-18T09:12:33;8.88;;;7.88;;
44270;SDS011;29963;44.594;11.368;2022-12-18T09:14:59;9.80;;;8.55;;
44270;SDS011;29963;44.594;11.368;2022-12-18T09:17:26;13.52;;;7.50;;
44270;SDS011;29963;44.594;11.368;2022-12-18T09:19:52;9.40;;;8.40;;
44270;SDS011;29963;44.594;11.368;2022-12-18T09:22:17;8.30;;;7.45;;
44270;SDS011;29963;44.594;11.368;2022-12-18T09:24:43;9.50;;;8.10;;
44270;SDS011;29963;44.594;11.368;2022-12-18T09:27:08;12.13;;;9.73;;
44270;SDS011;29963;44.594;11.368;2022-12-18T09:29:34;12.43;;;10.75;;
44270;SDS011;29963;44.594;11.368;2022-12-18T09:32:00;11.10;;;9.75;;
44270;SDS011;29963;44.594;11.368;2022-12-18T09:34:25;11.00;;;9.07;;
44270;SDS011;29963;44.594;11.368;2022-12-18T09:36:51;9.88;;;8.18;;
44270;SDS011;29963;44.594;11.368;2022-12-18T09:39:17;9.73;;;8.73;;
44270;SDS011;29963;44.594;11.368;2022-12-18T09:41:52;9.25;;;8.25;;
44270;SDS011;29963;44.594;11.368;2022-12-18T09:44:27;9.90;;;8.50;;
44270;SDS011;29963;44.594;11.368;2022-12-18T09:47:17;10.82;;;9.48;;
44270;SDS011;29963;44.594;11.368;2022-12-18T09:50:01;10.52;;;9.25;;
44270;SDS011;29963;44.594;11.368;2022-12-18T09:57:35;10.70;;;9.50;;
44270;SDS011;29963;44.594;11.368;2022-12-18T10:00:17;10.85;;;8.10;;
44270;SDS011;29963;44.594;11.368;2022-12-18T10:02:46;11.32;;;8.38;;
44270;SDS011;29963;44.594;11.368;2022-12-18T10:05:29;9.75;;;8.70;;
44270;SDS011;29963;44.594;11.368;2022-12-18T10:11:20;9.13;;;8.20;;
44270;SDS011;29963;44.594;11.368;2022-12-18T10:25:26;10.98;;;9.65;;
44270;SDS011;29963;44.594;11.368;2022-12-18T10:28:00;10.65;;;9.43;;
44270;SDS011;29963;44.594;11.368;2022-12-18T10:30:37;14.32;;;11.63;;
44270;SDS011;29963;44.594;11.368;2022-12-18T10:33:05;11.55;;;10.25;;
44270;SDS011;29963;44.594;11.368;2022-12-18T10:35:31;12.32;;;10.02;;
44270;SDS011;29963;44.594;11.368;2022-12-18T10:38:07;12.10;;;9.77;;
44270;SDS011;29963;44.594;11.368;2022-12-18T10:40:48;10.20;;;9.13;;
44270;SDS011;29963;44.594;11.368;2022-12-18T10:48:55;10.30;;;8.77;;
44270;SDS011;29963;44.594;11.368;2022-12-18T10:51:25;12.35;;;9.52;;
44270;SDS011;29963;44.594;11.368;2022-12-18T10:56:27;13.02;;;9.23;;
44270;SDS011;29963;44.594;11.368;2022-12-18T10:58:56;11.88;;;9.77;;
44270;SDS011;29963;44.594;11.368;2022-12-18T11:01:23;11.48;;;10.25;;
44270;SDS011;29963;44.594;11.368;2022-12-18T11:08:42;15.02;;;10.07;;
44270;SDS011;29963;44.594;11.368;2022-12-18T11:11:21;10.73;;;9.27;;
44270;SDS011;29963;44.594;11.368;2022-12-18T11:16:28;11.27;;;9.68;;
44270;SDS011;29963;44.594;11.368;2022-12-18T11:19:07;9.80;;;8.32;;
44270;SDS011;29963;44.594;11.368;2022-12-18T11:21:40;12.57;;;9.95;;
44270;SDS011;29963;44.594;11.368;2022-12-18T11:24:13;11.20;;;10.02;;
44270;SDS011;29963;44.594;11.368;2022-12-18T11:26:58;11.45;;;9.38;;
44270;SDS011;29963;44.594;11.368;2022-12-18T11:29:36;10.75;;;9.65;;
44270;SDS011;29963;44.594;11.368;2022-12-18T11:38:12;14.52;;;9.85;;
44270;SDS011;29963;44.594;11.368;2022-12-18T11:43:35;11.45;;;9.52;;
44270;SDS011;29963;44.594;11.368;2022-12-18T11:46:23;12.95;;;9.85;;
44270;SDS011;29963;44.594;11.368;2022-12-18T11:51:49;11.30;;;9.63;;
44270;SDS011;29963;44.594;11.368;2022-12-18T11:54:37;11.85;;;9.73;;
44270;SDS011;29963;44.594;11.368;2022-12-18T12:05:14;14.05;;;10.63;;
44270;SDS011;29963;44.594;11.368;2022-12-18T12:08:06;13.93;;;9.90;;
44270;SDS011;29963;44.594;11.368;2022-12-18T12:19:26;12.50;;;11.20;;
44270;SDS011;29963;44.594;11.368;2022-12-18T12:30:39;11.52;;;10.07;;
44270;SDS011;29963;44.594;11.368;2022-12-18T12:36:26;10.70;;;9.23;;
44270;SDS011;29963;44.594;11.368;2022-12-18T12:39:20;12.27;;;10.57;;
44270;SDS011;29963;44.594;11.368;2022-12-18T12:41:53;10.88;;;9.77;;
44270;SDS011;29963;44.594;11.368;2022-12-18T12:44:40;11.45;;;9.68;;
44270;SDS011;29963;44.594;11.368;2022-12-18T12:47:13;11.25;;;10.05;;
44270;SDS011;29963;44.594;11.368;2022-12-18T12:49:42;12.10;;;10.05;;
44270;SDS011;29963;44.594;11.368;2022-12-18T12:52:13;12.57;;;9.75;;
44270;SDS011;29963;44.594;11.368;2022-12-18T12:54:42;11.57;;;9.55;;
44270;SDS011;29963;44.594;11.368;2022-12-18T13:02:36;12.65;;;10.25;;
44270;SDS011;29963;44.594;11.368;2022-12-18T13:10:35;12.20;;;10.45;;
44270;SDS011;29963;44.594;11.368;2022-12-18T13:16:06;11.75;;;10.32;;
44270;SDS011;29963;44.594;11.368;2022-12-18T13:18:33;11.45;;;9.77;;
44270;SDS011;29963;44.594;11.368;2022-12-18T13:25:52;10.52;;;8.90;;
44270;SDS011;29963;44.594;11.368;2022-12-18T13:31:11;9.50;;;8.50;;
44270;SDS011;29963;44.594;11.368;2022-12-18T13:33:41;12.20;;;8.55;;
44270;SDS011;29963;44.594;11.368;2022-12-18T13:41:47;13.05;;;9.13;;
44270;SDS011;29963;44.594;11.368;2022-12-18T13:47:03;8.32;;;7.50;;
44270;SDS011;29963;44.594;11.368;2022-12-18T13:52:16;10.93;;;9.13;;
44270;SDS011;29963;44.594;11.368;2022-12-18T13:54:51;12.60;;;9.52;;
44270;SDS011;29963;44.594;11.368;2022-12-18T13:59:53;12.25;;;9.30;;
44270;SDS011;29963;44.594;11.368;2022-12-18T14:02:25;8.45;;;7.65;;
44270;SDS011;29963;44.594;11.368;2022-12-18T14:04:55;13.90;;;10.07;;
44270;SDS011;29963;44.594;11.368;2022-12-18T14:07:21;10.85;;;9.55;;
44270;SDS011;29963;44.594;11.368;2022-12-18T14:09:50;10.00;;;8.88;;
44270;SDS011;29963;44.594;11.368;2022-12-18T14:15:23;10.73;;;9.20;;
44270;SDS011;29963;44.594;11.368;2022-12-18T14:17:52;10.77;;;8.82;;
44270;SDS011;29963;44.594;11.368;2022-12-18T14:20:39;9.93;;;8.82;;
44270;SDS011;29963;44.594;11.368;2022-12-18T14:28:45;11.93;;;9.35;;
44270;SDS011;29963;44.594;11.368;2022-12-18T14:31:20;9.70;;;8.70;;
44270;SDS011;29963;44.594;11.368;2022-12-18T14:33:48;12.95;;;9.88;;
44270;SDS011;29963;44.594;11.368;2022-12-18T14:36:18;10.20;;;9.13;;
44270;SDS011;29963;44.594;11.368;2022-12-18T14:38:52;10.13;;;9.15;;
44270;SDS011;29963;44.594;11.368;2022-12-18T14:41:19;11.70;;;9.63;;
44270;SDS011;29963;44.594;11.368;2022-12-18T14:43:49;12.00;;;10.13;;
44270;SDS011;29963;44.594;11.368;2022-12-18T14:46:35;14.68;;;10.07;;
44270;SDS011;29963;44.594;11.368;2022-12-18T14:49:02;14.50;;;11.38;;
44270;SDS011;29963;44.594;11.368;2022-12-18T14:51:29;11.90;;;10.57;;
44270;SDS011;29963;44.594;11.368;2022-12-18T14:53:58;10.00;;;9.00;;
44270;SDS011;29963;44.594;11.368;2022-12-18T14:56:27;13.65;;;10.20;;
44270;SDS011;29963;44.594;11.368;2022-12-18T14:59:01;10.52;;;9.35;;
44270;SDS011;29963;44.594;11.368;2022-12-18T15:01:30;11.98;;;10.02;;
44270;SDS011;29963;44.594;11.368;2022-12-18T15:04:02;11.57;;;9.63;;
44270;SDS011;29963;44.594;11.368;2022-12-18T15:06:30;12.13;;;10.15;;
44270;SDS011;29963;44.594;11.368;2022-12-18T15:09:03;14.52;;;10.15;;
44270;SDS011;29963;44.594;11.368;2022-12-18T15:11:35;11.13;;;9.93;;
44270;SDS011;29963;44.594;11.368;2022-12-18T15:16:56;14.10;;;11.07;;
44270;SDS011;29963;44.594;11.368;2022-12-18T15:19:32;13.40;;;10.55;;
44270;SDS011;29963;44.594;11.368;2022-12-18T15:24:52;12.43;;;10.45;;
44270;SDS011;29963;44.594;11.368;2022-12-18T15:27:20;10.90;;;9.80;;
44270;SDS011;29963;44.594;11.368;2022-12-18T15:29:59;13.77;;;10.73;;
44270;SDS011;29963;44.594;11.368;2022-12-18T15:32:34;11.48;;;9.80;;
44270;SDS011;29963;44.594;11.368;2022-12-18T15:35:11;11.90;;;10.18;;
44270;SDS011;29963;44.594;11.368;2022-12-18T15:37:40;12.50;;;10.35;;
44270;SDS011;29963;44.594;11.368;2022-12-18T15:40:07;13.60;;;11.30;;
44270;SDS011;29963;44.594;11.368;2022-12-18T15:42:37;12.15;;;10.38;;
44270;SDS011;29963;44.594;11.368;2022-12-18T15:45:21;13.23;;;11.20;;
44270;SDS011;29963;44.594;11.368;2022-12-18T15:47:47;16.95;;;13.75;;
44270;SDS011;29963;44.594;11.368;2022-12-18T15:50:12;14.18;;;12.27;;
44270;SDS011;29963;44.594;11.368;2022-12-18T15:52:42;14.65;;;12.57;;
44270;SDS011;29963;44.594;11.368;2022-12-18T15:55:16;15.02;;;13.45;;
44270;SDS011;29963;44.594;11.368;2022-12-18T15:58:03;16.95;;;13.98;;
44270;SDS011;29963;44.594;11.368;2022-12-18T16:00:29;17.55;;;13.55;;
44270;SDS011;29963;44.594;11.368;2022-12-18T16:02:56;18.70;;;13.20;;
44270;SDS011;29963;44.594;11.368;2022-12-18T16:05:22;15.98;;;12.93;;
44270;SDS011;29963;44.594;11.368;2022-12-18T16:07:48;16.65;;;12.55;;
44270;SDS011;29963;44.594;11.368;2022-12-18T16:10:14;14.77;;;12.93;;
44270;SDS011;29963;44.594;11.368;2022-12-18T16:12:40;18.13;;;12.50;;
44270;SDS011;29963;44.594;11.368;2022-12-18T16:15:07;18.20;;;12.38;;
44270;SDS011;29963;44.594;11.368;2022-12-18T16:17:35;14.82;;;13.23;;
44270;SDS011;29963;44.594;11.368;2022-12-18T16:20:01;17.33;;;14.63;;
44270;SDS011;29963;44.594;11.368;2022-12-18T16:22:28;20.02;;;15.23;;
44270;SDS011;29963;44.594;11.368;2022-12-18T16:24:55;24.98;;;19.77;;
44270;SDS011;29963;44.594;11.368;2022-12-18T16:27:22;21.27;;;15.25;;
44270;SDS011;29963;44.594;11.368;2022-12-18T16:29:49;14.18;;;12.77;;
44270;SDS011;29963;44.594;11.368;2022-12-18T16:32:16;15.02;;;12.93;;
44270;SDS011;29963;44.594;11.368;2022-12-18T16:34:43;14.95;;;13.38;;
44270;SDS011;29963;44.594;11.368;2022-12-18T16:37:11;18.15;;;15.25;;
44270;SDS011;29963;44.594;11.368;2022-12-18T16:39:37;19.08;;;16.27;;
44270;SDS011;29963;44.594;11.368;2022-12-18T16:42:11;18.70;;;16.38;;
44270;SDS011;29963;44.594;11.368;2022-12-18T16:44:44;20.92;;;18.67;;
44270;SDS011;29963;44.594;11.368;2022-12-18T16:47:11;23.17;;;17.85;;
44270;SDS011;29963;44.594;11.368;2022-12-18T16:49:36;17.15;;;14.77;;
44270;SDS011;29963;44.594;11.368;2022-12-18T16:52:03;21.15;;;16.15;;
44270;SDS011;29963;44.594;11.368;2022-12-18T16:54:30;23.60;;;17.45;;
44270;SDS011;29963;44.594;11.368;2022-12-18T16:56:57;33.95;;;24.73;;
44270;SDS011;29963;44.594;11.368;2022-12-18T16:59:24;23.70;;;20.92;;
44270;SDS011;29963;44.594;11.368;2022-12-18T17:01:51;22.73;;;19.85;;
44270;SDS011;29963;44.594;11.368;2022-12-18T17:04:16;20.52;;;18.08;;
44270;SDS011;29963;44.594;11.368;2022-12-18T17:06:43;21.98;;;16.90;;
44270;SDS011;29963;44.594;11.368;2022-12-18T17:09:14;22.58;;;17.38;;
44270;SDS011;29963;44.594;11.368;2022-12-18T17:11:40;18.63;;;16.20;;
44270;SDS011;29963;44.594;11.368;2022-12-18T17:14:17;20.55;;;17.15;;
44270;SDS011;29963;44.594;11.368;2022-12-18T17:16:44;22.20;;;16.85;;
44270;SDS011;29963;44.594;11.368;2022-12-18T17:19:11;20.48;;;17.45;;
44270;SDS011;29963;44.594;11.368;2022-12-18T17:21:37;22.58;;;18.52;;
44270;SDS011;29963;44.594;11.368;2022-12-18T17:24:03;21.40;;;17.52;;
44270;SDS011;29963;44.594;11.368;2022-12-18T17:26:28;25.85;;;17.15;;